Time;durP1;ratioP1;P1;durP2;ratioP2;P2;SDS_P1;SDS_P2;PMS_P1;PMS_P2;Temp;Humidity;BMP_temperature;BMP_pressure;BME280_temperature;BME280_humidity;BME280_pressure;Samples;Min_cycle;Max_cycle;Signal;HPM_P1;HPM_P2
2021/04/27 00:00:37;;;;;;;6.67;2.83;;;6.80;64.70;;;;;;5050793;28;20029;-75
2021/04/27 00:03:05;;;;;;;6.50;3.00;;;6.70;65.00;;;;;;5035389;28;20036;-75
2021/04/27 00:05:31;;;;;;;4.90;2.33;;;6.70;65.40;;;;;;5070036;28;20031;-75
2021/04/27 00:07:57;;;;;;;7.57;3.60;;;6.70;65.60;;;;;;5050402;28;20462;-74
2021/04/27 00:10:23;;;;;;;6.27;2.87;;;6.70;66.10;;;;;;5051756;28;20127;-75
2021/04/27 00:12:48;;;;;;;7.83;3.40;;;6.80;66.20;;;;;;5050156;28;20595;-75
2021/04/27 00:15:18;;;;;;;4.87;2.97;;;6.90;66.50;;;;;;5037600;28;20036;-75
2021/04/27 00:17:44;;;;;;;6.60;2.67;;;6.90;66.10;;;;;;5058819;28;20025;-77
2021/04/27 00:20:10;;;;;;;6.30;2.40;;;6.80;66.10;;;;;;5069744;28;20017;-76
2021/04/27 00:22:36;;;;;;;8.63;3.57;;;6.70;66.60;;;;;;5069489;28;20031;-75
2021/04/27 00:25:02;;;;;;;6.53;3.03;;;6.80;67.20;;;;;;5050569;28;20107;-75
2021/04/27 00:27:28;;;;;;;6.00;2.40;;;6.90;66.80;;;;;;5046686;28;20128;-74
2021/04/27 00:29:54;;;;;;;5.53;3.03;;;6.80;66.60;;;;;;5049218;28;20112;-73
2021/04/27 00:32:19;;;;;;;4.53;2.70;;;6.70;67.20;;;;;;5016036;28;20404;-74
2021/04/27 00:34:45;;;;;;;7.00;3.10;;;6.60;67.40;;;;;;5040420;28;20033;-78
2021/04/27 00:37:11;;;;;;;3.80;2.80;;;6.70;67.70;;;;;;5069128;28;20032;-76
2021/04/27 00:39:37;;;;;;;8.10;2.87;;;6.50;67.50;;;;;;5068849;28;20029;-75
2021/04/27 00:42:03;;;;;;;3.60;2.73;;;6.40;67.90;;;;;;5050121;28;20902;-74
2021/04/27 00:44:28;;;;;;;7.47;3.50;;;6.40;68.60;;;;;;5068375;28;20048;-75
2021/04/27 00:46:54;;;;;;;6.30;3.67;;;6.30;68.60;;;;;;5050298;28;20029;-73
2021/04/27 00:49:19;;;;;;;8.53;4.53;;;6.10;68.90;;;;;;5069398;28;20025;-74
2021/04/27 00:51:45;;;;;;;7.23;3.30;;;6.10;69.40;;;;;;5051861;28;20049;-79
2021/04/27 00:54:11;;;;;;;9.63;4.47;;;6.10;69.60;;;;;;5054809;28;20033;-75
2021/04/27 00:56:37;;;;;;;5.77;3.57;;;6.00;69.60;;;;;;5057301;28;20111;-74
2021/04/27 00:59:04;;;;;;;7.40;4.73;;;6.00;69.90;;;;;;5053487;28;20028;-74
2021/04/27 01:01:30;;;;;;;8.80;4.03;;;5.90;70.10;;;;;;5068754;28;20394;-75
2021/04/27 01:03:56;;;;;;;5.23;4.17;;;5.80;70.40;;;;;;5051102;28;20033;-74
2021/04/27 01:06:22;;;;;;;8.60;6.23;;;5.70;70.60;;;;;;5018997;28;20415;-75
2021/04/27 01:08:50;;;;;;;12.00;7.43;;;5.70;70.90;;;;;;5063622;28;20388;-79
2021/04/27 01:11:35;;;;;;;19.23;12.03;;;5.70;71.00;;;;;;5053950;28;20028;-75
2021/04/27 01:14:09;;;;;;;10.93;5.60;;;5.90;71.50;;;;;;5071329;28;20112;-75
2021/04/27 01:16:44;;;;;;;13.83;6.73;;;5.90;70.80;;;;;;5073120;28;20107;-77
2021/04/27 01:19:16;;;;;;;7.83;4.80;;;5.90;70.90;;;;;;5072182;28;20069;-75
2021/04/27 01:21:43;;;;;;;10.27;4.30;;;5.80;70.90;;;;;;5072504;28;20032;-73
2021/04/27 01:24:22;;;;;;;14.63;8.97;;;5.70;71.00;;;;;;5071764;28;20028;-76
2021/04/27 01:26:53;;;;;;;7.97;4.90;;;5.70;71.50;;;;;;5072355;28;20079;-75
2021/04/27 01:29:27;;;;;;;8.73;4.60;;;5.80;71.50;;;;;;5054033;28;20028;-75
2021/04/27 01:31:54;;;;;;;10.17;5.53;;;5.70;71.50;;;;;;5072414;28;20028;-78
2021/04/27 01:34:24;;;;;;;10.33;6.10;;;5.60;71.80;;;;;;5072029;28;20044;-76
2021/04/27 01:36:51;;;;;;;8.27;4.33;;;5.60;71.90;;;;;;5054464;28;20093;-79
2021/04/27 01:39:20;;;;;;;6.00;4.00;;;5.50;72.00;;;;;;5053242;28;20134;-75
2021/04/27 01:41:46;;;;;;;6.73;4.03;;;5.50;72.10;;;;;;5037303;28;20025;-74
2021/04/27 01:44:14;;;;;;;16.03;7.17;;;5.50;72.20;;;;;;5071183;28;20036;-74
2021/04/27 01:46:42;;;;;;;8.83;4.43;;;5.40;72.40;;;;;;5071591;28;20021;-74
2021/04/27 01:49:08;;;;;;;9.30;4.70;;;5.40;72.40;;;;;;5049537;28;20107;-73
2021/04/27 01:51:34;;;;;;;7.83;4.47;;;5.40;72.50;;;;;;5052649;28;20082;-75
2021/04/27 01:54:00;;;;;;;9.17;5.53;;;5.30;72.60;;;;;;5052124;28;20033;-75
2021/04/27 01:56:27;;;;;;;11.20;5.60;;;5.30;72.80;;;;;;5035224;28;20021;-74
2021/04/27 01:58:52;;;;;;;8.50;4.33;;;5.30;73.10;;;;;;5050439;28;20509;-79
2021/04/27 02:01:19;;;;;;;7.10;3.70;;;5.30;72.80;;;;;;5070501;28;20075;-74
2021/04/27 02:03:45;;;;;;;7.43;4.33;;;5.20;72.90;;;;;;5021335;28;20032;-74
2021/04/27 02:06:11;;;;;;;9.53;4.33;;;5.20;73.10;;;;;;5053172;28;20078;-74
2021/04/27 02:08:39;;;;;;;9.43;5.23;;;5.10;73.20;;;;;;5071488;28;20028;-72
2021/04/27 02:11:05;;;;;;;5.87;4.00;;;5.10;73.20;;;;;;5036970;28;20032;-74
2021/04/27 02:13:31;;;;;;;6.87;4.13;;;5.00;73.30;;;;;;5045465;28;20040;-75
2021/04/27 02:15:59;;;;;;;10.40;4.50;;;5.00;73.50;;;;;;5046507;28;20955;-77
2021/04/27 02:18:35;;;;;;;6.80;4.33;;;5.00;73.60;;;;;;5071576;28;20031;-75
2021/04/27 02:21:03;;;;;;;5.93;4.17;;;5.00;73.60;;;;;;5039859;28;20028;-74
2021/04/27 02:23:29;;;;;;;6.23;3.80;;;5.00;73.50;;;;;;5052552;28;20047;-75
2021/04/27 02:25:57;;;;;;;10.00;3.97;;;5.00;73.40;;;;;;5050370;28;20025;-75
2021/04/27 02:28:23;;;;;;;7.13;3.93;;;5.00;73.40;;;;;;5067873;28;20028;-75
2021/04/27 02:30:50;;;;;;;7.17;4.10;;;5.00;73.50;;;;;;5053500;28;20028;-74
2021/04/27 02:33:16;;;;;;;7.53;3.90;;;4.90;73.50;;;;;;5070542;28;20040;-74
2021/04/27 02:35:43;;;;;;;7.17;4.50;;;4.90;73.60;;;;;;5071588;28;20044;-74
2021/04/27 02:38:11;;;;;;;11.67;4.30;;;4.90;73.70;;;;;;5068628;28;20024;-75
2021/04/27 02:40:38;;;;;;;8.30;3.97;;;4.90;73.60;;;;;;5052441;28;20389;-75
2021/04/27 02:43:04;;;;;;;7.70;5.27;;;4.90;73.70;;;;;;5052931;28;20477;-76
2021/04/27 02:45:33;;;;;;;6.83;4.73;;;4.90;73.80;;;;;;5053587;28;20385;-76
2021/04/27 02:48:25;;;;;;;5.03;4.53;;;4.90;73.50;;;;;;5067644;28;20047;-77
2021/04/27 02:51:00;;;;;;;8.77;4.35;;;4.90;73.60;;;;;;5049135;28;20032;-74
2021/04/27 02:53:26;;;;;;;5.77;4.33;;;4.80;73.60;;;;;;5052906;28;20033;-75
2021/04/27 02:55:53;;;;;;;8.83;4.20;;;4.80;73.60;;;;;;5071261;28;20024;-75
2021/04/27 02:58:20;;;;;;;7.77;4.43;;;4.80;73.70;;;;;;5070123;28;20021;-74
2021/04/27 03:00:46;;;;;;;6.43;4.03;;;4.80;73.60;;;;;;5070894;28;20059;-75
2021/04/27 03:03:12;;;;;;;6.90;4.63;;;4.80;73.90;;;;;;5052268;28;20123;-75
2021/04/27 03:05:39;;;;;;;6.70;4.53;;;4.80;73.70;;;;;;5070900;28;20482;-75
2021/04/27 03:08:06;;;;;;;7.17;4.23;;;4.70;73.70;;;;;;5052468;28;20024;-78
2021/04/27 03:10:32;;;;;;;9.10;4.63;;;4.70;73.70;;;;;;5034147;28;20036;-76
2021/04/27 03:12:58;;;;;;;7.30;4.57;;;4.60;73.70;;;;;;5070639;28;20029;-75
2021/04/27 03:15:25;;;;;;;9.10;4.23;;;4.50;73.70;;;;;;5068899;28;20024;-74
2021/04/27 03:17:51;;;;;;;5.27;4.00;;;4.60;73.90;;;;;;5053123;28;20114;-74
2021/04/27 03:20:17;;;;;;;7.33;3.87;;;4.60;73.70;;;;;;5051714;28;20067;-74
2021/04/27 03:22:43;;;;;;;8.83;4.47;;;4.60;73.80;;;;;;5052243;28;20027;-75
2021/04/27 03:25:10;;;;;;;7.93;5.27;;;4.50;73.80;;;;;;5065844;28;20109;-74
2021/04/27 03:27:36;;;;;;;7.00;5.03;;;4.60;74.00;;;;;;5070136;28;20025;-75
2021/04/27 03:30:05;;;;;;;8.57;4.30;;;4.70;74.00;;;;;;5052457;28;20385;-74
2021/04/27 03:32:31;;;;;;;6.47;4.60;;;4.70;74.00;;;;;;5069678;28;20039;-75
2021/04/27 03:34:57;;;;;;;9.80;4.77;;;4.70;74.00;;;;;;5070282;28;20108;-73
2021/04/27 03:37:23;;;;;;;7.37;4.60;;;4.60;73.80;;;;;;5051564;28;20078;-74
2021/04/27 03:39:49;;;;;;;10.00;4.90;;;4.60;73.70;;;;;;5035849;28;20381;-74
2021/04/27 03:42:15;;;;;;;8.83;5.27;;;4.50;73.90;;;;;;5051924;28;20055;-76
2021/04/27 03:44:41;;;;;;;7.90;4.87;;;4.50;73.70;;;;;;5052262;28;20385;-73
2021/04/27 03:47:07;;;;;;;6.77;4.73;;;4.50;73.90;;;;;;5068505;28;20108;-78
2021/04/27 03:49:33;;;;;;;9.63;5.20;;;4.50;73.90;;;;;;5050242;28;20035;-75
2021/04/27 03:51:59;;;;;;;8.27;4.53;;;4.50;73.90;;;;;;5050650;28;20103;-74
2021/04/27 03:54:25;;;;;;;8.00;4.67;;;4.50;73.90;;;;;;5032096;28;20045;-74
2021/04/27 03:56:51;;;;;;;8.47;4.83;;;4.60;74.60;;;;;;5033702;28;20031;-74
2021/04/27 03:59:17;;;;;;;9.30;4.43;;;4.70;74.50;;;;;;5031898;28;20123;-75
2021/04/27 04:01:42;;;;;;;6.40;4.90;;;4.80;74.10;;;;;;5050412;28;20123;-75
2021/04/27 04:04:08;;;;;;;8.90;4.83;;;4.80;73.80;;;;;;5047370;28;20116;-74
2021/04/27 04:06:34;;;;;;;14.67;5.17;;;4.70;73.60;;;;;;5051327;28;20495;-74
2021/04/27 04:09:05;;;;;;;7.93;4.50;;;4.60;73.60;;;;;;5070352;28;20462;-74
2021/04/27 04:11:32;;;;;;;9.87;4.20;;;4.50;73.80;;;;;;5069610;28;20017;-74
2021/04/27 04:13:58;;;;;;;8.37;4.73;;;4.50;74.00;;;;;;5052531;28;20075;-75
2021/04/27 04:16:24;;;;;;;6.27;4.63;;;4.60;74.30;;;;;;5068950;28;20052;-75
2021/04/27 04:18:50;;;;;;;8.67;5.00;;;4.60;74.00;;;;;;5066104;28;20039;-75
2021/04/27 04:21:16;;;;;;;13.33;5.13;;;4.50;73.80;;;;;;5049662;28;20466;-76
2021/04/27 04:23:42;;;;;;;9.23;5.37;;;4.60;73.90;;;;;;5035516;28;20119;-74
2021/04/27 04:26:08;;;;;;;8.57;5.17;;;4.60;74.10;;;;;;5051997;28;20398;-74
2021/04/27 04:28:34;;;;;;;9.43;4.77;;;4.60;74.10;;;;;;5034744;28;20029;-74
2021/04/27 04:30:59;;;;;;;8.37;4.80;;;4.70;73.90;;;;;;5070287;28;20080;-76
2021/04/27 04:33:25;;;;;;;8.47;4.93;;;4.60;73.70;;;;;;5069233;28;20036;-76
2021/04/27 04:35:51;;;;;;;7.63;4.83;;;4.70;73.70;;;;;;5069665;28;20037;-75
2021/04/27 04:38:18;;;;;;;10.63;4.83;;;4.80;73.50;;;;;;5034688;28;20028;-80
2021/04/27 04:40:45;;;;;;;8.83;5.00;;;4.80;73.20;;;;;;5052229;28;20024;-73
2021/04/27 04:43:10;;;;;;;7.07;4.87;;;4.90;72.90;;;;;;5051954;28;20458;-75
2021/04/27 04:45:36;;;;;;;10.73;5.43;;;5.20;72.70;;;;;;5069103;28;20027;-74
2021/04/27 04:48:02;;;;;;;7.43;4.53;;;5.80;71.20;;;;;;5052101;28;20037;-74
2021/04/27 04:50:28;;;;;;;9.13;4.73;;;6.50;69.30;;;;;;5034441;28;20036;-75
2021/04/27 04:52:53;;;;;;;8.70;4.57;;;7.00;67.40;;;;;;5051610;28;20115;-75
2021/04/27 04:55:19;;;;;;;6.37;4.50;;;7.60;66.10;;;;;;5051237;28;20157;-79
2021/04/27 04:57:45;;;;;;;7.63;4.27;;;8.20;64.00;;;;;;5035230;28;20043;-75
2021/04/27 05:00:14;;;;;;;6.67;4.50;;;8.80;62.00;;;;;;5051576;28;20029;-75
2021/04/27 05:02:40;;;;;;;7.83;4.00;;;9.30;60.40;;;;;;5068668;28;20064;-74
2021/04/27 05:05:07;;;;;;;8.40;4.47;;;9.80;58.60;;;;;;5051664;28;20075;-76
2021/04/27 05:07:40;;;;;;;9.73;4.43;;;10.50;56.60;;;;;;5068726;28;20032;-76
2021/04/27 05:10:07;;;;;;;6.70;4.10;;;10.90;54.60;;;;;;5051966;28;20033;-75
2021/04/27 05:12:33;;;;;;;7.83;4.30;;;11.10;53.60;;;;;;5049434;28;20021;-74
2021/04/27 05:14:58;;;;;;;6.33;3.90;;;11.40;52.00;;;;;;5015327;28;20040;-76
2021/04/27 05:17:24;;;;;;;7.33;4.10;;;11.70;51.30;;;;;;5031761;28;20201;-77
2021/04/27 05:19:50;;;;;;;5.40;4.17;;;12.00;49.90;;;;;;5031434;28;20041;-75
2021/04/27 05:22:16;;;;;;;8.30;3.97;;;12.30;48.60;;;;;;5031469;28;20031;-75
2021/04/27 05:24:41;;;;;;;9.17;4.50;;;12.40;48.20;;;;;;5030912;28;20033;-74
2021/04/27 05:27:07;;;;;;;7.13;4.17;;;12.20;47.50;;;;;;5037182;28;20029;-74
2021/04/27 05:29:34;;;;;;;5.57;4.60;;;12.10;48.10;;;;;;5050494;28;20029;-75
2021/04/27 05:32:00;;;;;;;5.27;4.40;;;12.10;47.60;;;;;;5051986;28;20166;-74
2021/04/27 05:34:25;;;;;;;9.57;4.30;;;12.30;48.20;;;;;;5050199;28;20132;-77
2021/04/27 05:36:51;;;;;;;9.87;4.77;;;12.60;46.80;;;;;;5069697;28;20502;-75
2021/04/27 05:39:18;;;;;;;7.47;4.10;;;12.70;46.60;;;;;;5072645;28;20611;-75
2021/04/27 05:41:43;;;;;;;10.70;5.00;;;13.00;46.70;;;;;;5054355;28;20120;-74
2021/04/27 05:44:09;;;;;;;9.17;5.13;;;13.50;44.70;;;;;;5038617;28;20171;-74
2021/04/27 05:46:35;;;;;;;7.03;4.63;;;13.30;43.70;;;;;;5049604;28;20033;-73
2021/04/27 05:49:02;;;;;;;6.60;4.43;;;13.20;44.00;;;;;;5061496;28;20024;-74
2021/04/27 05:51:27;;;;;;;7.57;4.63;;;13.40;44.30;;;;;;5034825;28;20032;-78
2021/04/27 05:53:53;;;;;;;7.23;4.50;;;13.50;43.30;;;;;;5035585;28;20041;-76
2021/04/27 05:56:19;;;;;;;6.77;4.33;;;13.50;42.80;;;;;;5035033;28;20040;-75
2021/04/27 05:58:45;;;;;;;4.97;3.90;;;13.50;42.80;;;;;;5045456;28;20103;-74
2021/04/27 06:01:12;;;;;;;7.33;4.03;;;13.50;42.00;;;;;;5042976;28;21387;-75
2021/04/27 06:03:38;;;;;;;8.90;4.10;;;13.50;41.80;;;;;;5063099;28;20114;-75
2021/04/27 06:06:04;;;;;;;11.60;4.23;;;13.60;41.80;;;;;;5050945;28;20549;-73
2021/04/27 06:08:30;;;;;;;8.73;4.10;;;13.90;40.80;;;;;;5048791;28;20477;-78
2021/04/27 06:10:57;;;;;;;6.57;3.72;;;14.00;41.30;;;;;;5054507;28;20062;-73
2021/04/27 06:13:23;;;;;;;5.75;3.65;;;14.70;40.50;;;;;;5054195;28;20049;-74
2021/04/27 06:15:49;;;;;;;5.20;3.60;;;15.00;39.70;;;;;;5044987;28;20081;-74
2021/04/27 06:18:14;;;;;;;5.13;2.83;;;15.60;38.30;;;;;;5034312;28;20106;-74
2021/04/27 06:20:40;;;;;;;4.07;2.55;;;15.30;35.90;;;;;;5033679;28;20395;-75
2021/04/27 06:23:06;;;;;;;5.50;2.72;;;14.40;36.50;;;;;;5034125;28;20780;-74
2021/04/27 06:25:31;;;;;;;3.85;2.50;;;13.90;36.50;;;;;;5033970;28;20039;-79
2021/04/27 06:27:57;;;;;;;6.43;2.92;;;13.90;37.40;;;;;;5034092;28;20488;-75
2021/04/27 06:30:24;;;;;;;4.00;2.80;;;13.90;37.20;;;;;;5052240;28;20525;-75
2021/04/27 06:32:52;;;;;;;11.02;3.10;;;14.80;36.10;;;;;;5051498;28;20028;-76
2021/04/27 06:35:19;;;;;;;7.43;2.55;;;14.60;34.90;;;;;;5056055;28;20036;-75
2021/04/27 06:37:45;;;;;;;6.65;2.22;;;14.50;35.30;;;;;;5068563;28;20060;-75
2021/04/27 06:40:12;;;;;;;4.30;2.50;;;14.40;35.20;;;;;;5039949;28;20537;-75
2021/04/27 06:42:37;;;;;;;5.30;2.40;;;14.40;35.60;;;;;;5051775;28;20033;-75
2021/04/27 06:45:04;;;;;;;2.85;2.17;;;14.50;35.10;;;;;;5072694;28;20512;-76
2021/04/27 06:47:29;;;;;;;5.22;2.53;;;14.60;34.50;;;;;;5062062;28;20035;-75
2021/04/27 06:49:57;;;;;;;9.10;2.42;;;14.60;34.10;;;;;;5058630;28;20028;-75
2021/04/27 06:52:23;;;;;;;9.30;2.38;;;14.60;34.40;;;;;;5073059;28;20040;-73
2021/04/27 06:54:49;;;;;;;8.40;2.40;;;14.70;34.10;;;;;;5054871;28;20047;-76
2021/04/27 06:57:15;;;;;;;7.63;2.33;;;14.70;33.70;;;;;;5037176;28;20036;-75
2021/04/27 06:59:40;;;;;;;3.85;2.00;;;14.40;34.30;;;;;;5053110;28;20029;-74
2021/04/27 07:02:07;;;;;;;3.43;2.43;;;13.90;34.40;;;;;;5053561;28;20056;-74
2021/04/27 07:04:36;;;;;;;6.93;2.10;;;13.30;35.50;;;;;;5067834;28;20046;-74
2021/04/27 07:07:02;;;;;;;3.83;2.00;;;12.80;36.30;;;;;;5056058;28;20147;-73
2021/04/27 07:09:28;;;;;;;6.33;2.70;;;12.70;37.00;;;;;;5051811;28;20039;-74
2021/04/27 07:11:54;;;;;;;7.07;2.60;;;12.90;37.10;;;;;;5052293;28;20029;-74
2021/04/27 07:14:21;;;;;;;6.90;2.37;;;13.70;35.70;;;;;;5039739;28;20047;-74
2021/04/27 07:16:46;;;;;;;5.97;1.90;;;13.80;35.20;;;;;;5048438;28;20033;-76
2021/04/27 07:19:12;;;;;;;6.03;2.30;;;13.50;35.20;;;;;;5034447;28;20032;-74
2021/04/27 07:21:39;;;;;;;4.37;2.40;;;13.40;35.80;;;;;;5044204;28;20452;-73
2021/04/27 07:24:06;;;;;;;3.27;2.00;;;13.50;36.10;;;;;;5070295;28;20033;-74
2021/04/27 07:26:31;;;;;;;5.55;2.60;;;14.20;35.30;;;;;;5070799;28;20024;-73
2021/04/27 07:28:58;;;;;;;8.07;4.55;;;14.80;33.80;;;;;;5051738;28;20043;-72
2021/04/27 07:31:23;;;;;;;6.38;2.45;;;15.00;34.00;;;;;;5049907;28;20039;-74
2021/04/27 07:33:49;;;;;;;4.80;1.60;;;14.90;33.50;;;;;;5048137;28;20032;-74
2021/04/27 07:36:15;;;;;;;3.00;1.90;;;15.10;33.00;;;;;;5053372;28;20448;-74
2021/04/27 07:38:41;;;;;;;6.18;2.30;;;15.30;32.70;;;;;;5049873;28;20028;-77
2021/04/27 07:41:07;;;;;;;6.68;1.98;;;15.70;32.30;;;;;;5064517;28;20032;-74
2021/04/27 07:43:32;;;;;;;3.72;1.60;;;16.10;31.30;;;;;;5050830;28;20032;-74
2021/04/27 07:45:58;;;;;;;3.65;1.98;;;15.90;31.40;;;;;;5048175;28;20386;-74
2021/04/27 07:48:24;;;;;;;6.50;1.80;;;15.60;31.50;;;;;;5050510;28;20032;-75
2021/04/27 07:50:49;;;;;;;4.10;1.77;;;15.00;32.50;;;;;;5036679;28;20033;-75
2021/04/27 07:53:15;;;;;;;5.55;2.90;;;14.40;33.50;;;;;;5047962;28;20039;-75
2021/04/27 07:55:41;;;;;;;4.07;1.42;;;14.10;34.60;;;;;;5051752;28;20497;-75
2021/04/27 07:58:07;;;;;;;3.08;1.65;;;14.60;34.20;;;;;;5064382;28;20576;-76
2021/04/27 08:00:33;;;;;;;3.70;1.75;;;15.40;32.20;;;;;;5042822;28;20029;-73
2021/04/27 08:02:58;;;;;;;2.50;1.27;;;15.90;31.00;;;;;;5034863;28;20453;-74
2021/04/27 08:05:24;;;;;;;7.70;1.70;;;15.80;30.50;;;;;;5051789;28;20045;-73
2021/04/27 08:07:50;;;;;;;4.60;2.08;;;15.60;31.60;;;;;;5050430;28;20059;-74
2021/04/27 08:10:17;;;;;;;4.60;1.63;;;15.80;31.40;;;;;;5051971;28;20024;-73
2021/04/27 08:12:45;;;;;;;5.55;2.00;;;15.60;31.20;;;;;;5051127;28;20078;-74
2021/04/27 08:15:16;;;;;;;6.00;1.73;;;15.60;31.30;;;;;;5067596;28;20032;-73
2021/04/27 08:17:41;;;;;;;5.30;1.10;;;15.70;31.50;;;;;;5051338;28;20094;-74
2021/04/27 08:20:10;;;;;;;5.47;1.77;;;15.20;31.80;;;;;;5068744;28;20058;-75
2021/04/27 08:22:36;;;;;;;4.22;1.95;;;14.50;32.60;;;;;;5025350;28;20033;-74
2021/04/27 08:25:03;;;;;;;6.53;1.73;;;14.30;33.40;;;;;;5065638;28;20126;-75
2021/04/27 08:27:29;;;;;;;4.78;1.75;;;14.60;33.50;;;;;;5052614;28;20036;-75
2021/04/27 08:29:55;;;;;;;6.13;1.55;;;15.00;33.40;;;;;;5034657;28;20025;-74
2021/04/27 08:32:21;;;;;;;5.43;2.20;;;15.60;32.20;;;;;;5069507;28;20071;-74
2021/04/27 08:34:47;;;;;;;3.40;1.48;;;16.30;31.50;;;;;;5050834;28;20086;-72
2021/04/27 08:37:13;;;;;;;7.80;1.60;;;16.80;30.00;;;;;;5050189;28;20029;-75
2021/04/27 08:39:39;;;;;;;5.13;1.95;;;16.60;30.60;;;;;;5069667;28;20036;-73
2021/04/27 08:42:05;;;;;;;3.70;1.85;;;16.80;30.00;;;;;;5044990;28;20036;-74
2021/04/27 08:44:31;;;;;;;5.20;1.92;;;16.60;30.80;;;;;;5050010;28;20041;-76
2021/04/27 08:46:57;;;;;;;4.93;2.00;;;16.90;31.10;;;;;;5052187;28;20382;-73
2021/04/27 08:49:23;;;;;;;3.58;1.65;;;17.00;30.20;;;;;;5051907;28;20131;-75
2021/04/27 08:51:51;;;;;;;5.68;1.50;;;16.90;29.90;;;;;;5050978;28;20047;-74
2021/04/27 08:54:18;;;;;;;3.10;1.63;;;16.50;30.10;;;;;;5051072;28;20373;-74
2021/04/27 08:56:44;;;;;;;3.30;1.90;;;16.50;30.40;;;;;;5053647;28;20507;-75
2021/04/27 08:59:10;;;;;;;4.18;1.48;;;16.50;29.70;;;;;;5056524;28;20111;-73
2021/04/27 09:01:36;;;;;;;2.58;1.42;;;16.80;29.70;;;;;;5066761;28;20132;-74
2021/04/27 09:04:02;;;;;;;4.10;1.30;;;16.90;29.70;;;;;;5060801;28;20035;-73
2021/04/27 09:06:28;;;;;;;4.25;1.55;;;16.80;29.40;;;;;;5048645;28;20051;-73
2021/04/27 09:08:54;;;;;;;5.40;1.77;;;16.70;29.70;;;;;;5050995;28;20478;-77
2021/04/27 09:11:43;;;;;;;3.22;1.60;;;16.80;29.90;;;;;;5049604;28;20032;-74
2021/04/27 09:14:22;;;;;;;5.28;1.40;;;17.20;29.40;;;;;;5068358;28;20389;-76
2021/04/27 09:16:51;;;;;;;4.22;1.42;;;17.10;29.30;;;;;;5050674;28;20112;-75
2021/04/27 09:19:44;;;;;;;4.00;1.65;;;17.10;29.70;;;;;;5071528;28;20020;-74
2021/04/27 09:22:20;;;;;;;4.35;1.70;;;17.20;29.40;;;;;;5066494;28;20025;-75
2021/04/27 09:24:45;;;;;;;3.00;1.65;;;17.50;28.80;;;;;;5063331;28;21107;-74
2021/04/27 09:27:12;;;;;;;3.60;1.50;;;17.40;28.50;;;;;;5064515;28;20059;-74
2021/04/27 09:29:41;;;;;;;3.35;1.45;;;17.60;28.90;;;;;;5061948;28;20122;-75
2021/04/27 09:32:07;;;;;;;5.65;1.60;;;18.10;28.10;;;;;;5072510;28;20021;-74
2021/04/27 09:34:36;;;;;;;3.58;1.60;;;17.90;27.80;;;;;;5064881;28;20532;-73
2021/04/27 09:37:07;;;;;;;6.00;1.75;;;17.90;28.30;;;;;;5070338;28;20024;-79
2021/04/27 09:39:36;;;;;;;5.75;1.88;;;17.90;28.50;;;;;;5063422;28;20534;-74
2021/04/27 09:42:09;;;;;;;4.40;1.60;;;18.10;28.20;;;;;;5053140;28;20516;-79
2021/04/27 09:44:41;;;;;;;5.38;1.60;;;17.80;27.80;;;;;;5063946;28;20037;-75
2021/04/27 09:47:07;;;;;;;8.07;2.00;;;17.70;28.30;;;;;;5063020;28;20139;-75
2021/04/27 09:49:32;;;;;;;6.82;1.75;;;18.10;27.90;;;;;;5059098;28;20124;-74
2021/04/27 09:51:58;;;;;;;5.22;1.70;;;18.30;27.10;;;;;;5065930;28;20401;-74
2021/04/27 09:54:24;;;;;;;6.70;2.00;;;18.40;27.10;;;;;;5069711;28;20079;-74
2021/04/27 09:56:51;;;;;;;12.27;8.10;;;18.30;27.20;;;;;;5064672;28;20228;-73
2021/04/27 09:59:28;;;;;;;6.57;2.05;;;17.90;29.00;;;;;;5068479;28;20082;-74
2021/04/27 10:01:54;;;;;;;4.25;1.90;;;18.20;27.50;;;;;;5072220;28;20127;-74
2021/04/27 10:04:22;;;;;;;4.55;2.03;;;18.20;27.20;;;;;;5067220;28;20033;-73
2021/04/27 10:06:48;;;;;;;3.65;1.95;;;18.10;27.50;;;;;;5071973;28;20135;-73
2021/04/27 10:09:14;;;;;;;4.75;1.77;;;18.00;27.70;;;;;;5033619;28;20036;-74
2021/04/27 10:11:40;;;;;;;4.05;2.00;;;18.10;27.30;;;;;;5035075;28;20033;-74
2021/04/27 10:14:08;;;;;;;5.30;2.10;;;18.10;27.30;;;;;;5059115;28;20095;-78
2021/04/27 10:16:34;;;;;;;4.03;1.80;;;18.20;27.30;;;;;;5070377;28;20017;-73
2021/04/27 10:19:01;;;;;;;11.32;8.23;;;17.90;27.50;;;;;;5063122;28;20029;-74
2021/04/27 10:21:26;;;;;;;5.50;2.10;;;17.90;29.00;;;;;;5069546;28;20348;-74
2021/04/27 10:24:00;;;;;;;4.20;2.63;;;18.10;27.60;;;;;;5052621;28;20047;-73
2021/04/27 10:26:28;;;;;;;2.53;1.77;;;17.90;28.00;;;;;;5070554;28;20460;-74
2021/04/27 10:29:08;;;;;;;4.40;2.25;;;18.20;27.90;;;;;;5071195;28;20040;-73
2021/04/27 10:31:36;;;;;;;3.92;2.00;;;18.10;27.60;;;;;;5071728;28;20043;-74
2021/04/27 10:34:11;;;;;;;5.07;1.70;;;17.90;27.20;;;;;;5051665;28;20040;-74
2021/04/27 10:37:03;;;;;;;3.75;2.60;;;17.30;27.40;;;;;;5071354;28;20059;-74
2021/04/27 10:39:41;;;;;;;4.97;1.98;;;17.00;28.60;;;;;;5062841;28;20632;-74
2021/04/27 10:42:18;;;;;;;8.98;2.50;;;17.00;27.60;;;;;;5071788;28;20047;-74
2021/04/27 10:44:59;;;;;;;4.85;2.25;;;17.20;27.70;;;;;;5070418;28;20028;-74
2021/04/27 10:47:27;;;;;;;7.28;2.20;;;17.20;28.20;;;;;;5069848;28;20119;-73
2021/04/27 10:49:57;;;;;;;2.58;2.20;;;17.00;28.20;;;;;;5069302;28;20070;-74
2021/04/27 10:52:39;;;;;;;3.70;1.83;;;17.00;28.20;;;;;;5068106;28;20027;-75
2021/04/27 10:55:26;;;;;;;4.88;2.00;;;16.80;27.90;;;;;;5070949;28;20090;-74
2021/04/27 10:57:54;;;;;;;3.03;2.00;;;16.50;28.10;;;;;;5071310;28;20470;-73
2021/04/27 11:00:42;;;;;;;6.72;2.53;;;16.30;28.40;;;;;;5070903;28;20031;-75
2021/04/27 11:03:27;;;;;;;3.75;2.17;;;16.40;28.50;;;;;;5069052;28;20084;-74
2021/04/27 11:06:00;;;;;;;4.85;3.28;;;16.90;28.80;;;;;;5051979;28;20127;-73
2021/04/27 11:08:44;;;;;;;;;;;17.20;27.70;;;;;;5057352;28;20059;-73
2021/04/27 11:11:21;;;;;;;5.18;2.65;;;17.70;27.80;;;;;;5060553;28;20475;-74
2021/04/27 11:13:48;;;;;;;5.85;2.75;;;17.90;27.40;;;;;;5054756;28;20476;-73
2021/04/27 11:16:32;;;;;;;4.45;2.25;;;17.40;27.60;;;;;;5061687;28;20055;-79
2021/04/27 11:19:09;;;;;;;5.88;2.70;;;17.30;28.10;;;;;;5057651;28;20049;-74
2021/04/27 11:21:36;;;;;;;4.22;2.67;;;17.60;27.40;;;;;;5050725;28;20223;-77
2021/04/27 11:24:07;;;;;;;3.53;2.67;;;17.60;27.70;;;;;;5043770;28;20098;-75
2021/04/27 11:26:33;;;;;;;7.20;2.53;;;17.80;28.20;;;;;;5055588;28;20036;-72
2021/04/27 11:29:19;;;;;;;5.38;2.60;;;18.10;27.70;;;;;;5051354;28;20431;-75
2021/04/27 11:31:55;;;;;;;6.18;2.97;;;18.10;27.80;;;;;;5060218;28;20028;-75
2021/04/27 11:34:23;;;;;;;4.28;2.10;;;18.40;28.10;;;;;;5062144;28;20036;-74
2021/04/27 11:36:49;;;;;;;3.53;3.13;;;18.60;27.20;;;;;;5051480;28;20497;-74
2021/04/27 11:39:16;;;;;;;3.38;2.20;;;18.40;27.40;;;;;;5052661;28;20034;-74
2021/04/27 11:41:52;;;;;;;3.30;2.40;;;18.20;27.30;;;;;;5068841;28;20475;-77
2021/04/27 11:44:19;;;;;;;2.42;2.22;;;18.00;27.70;;;;;;5047266;28;20044;-78
2021/04/27 11:47:03;;;;;;;3.47;2.45;;;18.00;28.10;;;;;;5052222;28;20149;-74
2021/04/27 11:49:47;;;;;;;4.63;2.63;;;17.90;27.50;;;;;;5052164;28;20396;-74
2021/04/27 11:52:14;;;;;;;3.67;2.30;;;17.20;27.40;;;;;;5052060;28;20036;-74
2021/04/27 11:54:40;;;;;;;4.38;2.97;;;16.60;28.00;;;;;;5068435;28;20035;-76
2021/04/27 11:57:18;;;;;;;3.08;2.72;;;16.90;28.60;;;;;;5052412;28;20109;-74
2021/04/27 11:59:44;;;;;;;4.60;2.92;;;17.10;28.00;;;;;;5022900;28;20631;-76
2021/04/27 12:02:14;;;;;;;6.55;4.10;;;17.20;28.00;;;;;;5071481;28;20044;-74
2021/04/27 12:04:42;;;;;;;4.38;2.55;;;17.40;28.80;;;;;;5041742;28;20024;-75
2021/04/27 12:07:08;;;;;;;3.47;2.58;;;17.80;27.20;;;;;;5070071;28;20016;-74
2021/04/27 12:09:43;;;;;;;5.00;2.50;;;18.10;27.70;;;;;;5038312;28;20032;-75
2021/04/27 12:12:13;;;;;;;5.93;2.40;;;18.20;27.10;;;;;;5068731;28;20041;-73
2021/04/27 12:14:49;;;;;;;3.90;2.50;;;18.00;27.30;;;;;;5049513;28;20033;-75
2021/04/27 12:17:24;;;;;;;6.57;2.50;;;17.80;27.20;;;;;;5048494;28;20059;-73
2021/04/27 12:20:07;;;;;;;4.95;2.70;;;17.80;28.10;;;;;;5067146;28;20062;-73
2021/04/27 12:22:38;;;;;;;3.80;2.60;;;17.50;27.60;;;;;;5048254;28;20037;-74
2021/04/27 12:25:13;;;;;;;2.42;2.22;;;17.00;27.70;;;;;;5069083;28;20033;-74
2021/04/27 12:27:39;;;;;;;3.25;2.65;;;16.70;28.20;;;;;;5068172;28;20033;-74
2021/04/27 12:30:10;;;;;;;4.30;2.63;;;16.90;28.80;;;;;;5034867;28;20319;-71
2021/04/27 12:32:37;;;;;;;3.83;2.50;;;17.00;28.30;;;;;;5068307;28;20430;-74
2021/04/27 12:35:04;;;;;;;5.85;2.83;;;17.20;28.30;;;;;;5048429;28;20028;-74
2021/04/27 12:37:33;;;;;;;3.08;2.38;;;17.30;27.70;;;;;;5067641;28;20435;-74
2021/04/27 12:40:00;;;;;;;3.25;2.55;;;17.20;27.60;;;;;;5050013;28;20024;-75
2021/04/27 12:42:30;;;;;;;3.42;1.95;;;17.20;27.00;;;;;;5046491;28;20037;-79
2021/04/27 12:45:09;;;;;;;3.35;2.42;;;17.20;26.60;;;;;;5068422;28;20470;-76
2021/04/27 12:47:36;;;;;;;5.10;2.83;;;17.30;27.00;;;;;;5069758;28;20036;-73
2021/04/27 12:50:04;;;;;;;5.13;2.33;;;17.70;27.70;;;;;;5072813;28;20021;-73
2021/04/27 12:52:31;;;;;;;4.32;2.70;;;17.60;27.10;;;;;;5069983;28;20200;-76
2021/04/27 12:55:00;;;;;;;3.83;2.63;;;17.50;27.00;;;;;;5037589;28;20111;-75